Time;durP1;ratioP1;P1;durP2;ratioP2;P2;SDS_P1;SDS_P2;PMS_P1;PMS_P2;Temp;Humidity;BMP_temperature;BMP_pressure;BME280_temperature;BME280_humidity;BME280_pressure;Samples;Min_cycle;Max_cycle;Signal;HPM_P1;HPM_P2
2021/01/24 00:01:47;;;;;;;32.33;19.05;;;;;;;0.32;96.78;99338.00;5069459;28;20056;-62
2021/01/24 00:04:13;;;;;;;37.60;20.10;;;;;;;0.40;97.00;99323.34;5067902;28;20044;-63
2021/01/24 00:06:39;;;;;;;33.53;20.30;;;;;;;0.42;97.31;99329.41;5069087;28;20059;-61
2021/01/24 00:09:05;;;;;;;35.92;21.17;;;;;;;0.37;97.31;99332.38;5064631;28;20061;-63
2021/01/24 00:11:32;;;;;;;34.90;20.67;;;;;;;0.36;96.92;99332.50;5068372;28;20057;-62
2021/01/24 00:13:58;;;;;;;35.30;21.20;;;;;;;0.46;97.33;99329.06;5068976;28;20044;-61
2021/01/24 00:16:24;;;;;;;33.92;20.73;;;;;;;0.53;97.33;99329.50;5067949;28;20125;-61
2021/01/24 00:18:50;;;;;;;33.47;19.52;;;;;;;0.52;97.32;99327.78;5069418;28;20122;-62
2021/01/24 00:21:16;;;;;;;32.75;19.52;;;;;;;0.50;97.08;99335.84;5068441;28;20397;-61
2021/01/24 00:23:42;;;;;;;32.30;21.08;;;;;;;0.54;96.91;99335.63;5067461;28;20532;-62
2021/01/24 00:26:08;;;;;;;33.25;19.83;;;;;;;0.53;96.79;99334.78;5068477;28;20048;-62
2021/01/24 00:28:35;;;;;;;35.35;20.10;;;;;;;0.36;96.72;99332.50;5068486;28;20048;-62
2021/01/24 00:31:00;;;;;;;34.15;18.73;;;;;;;0.34;97.01;99336.09;5059979;28;20064;-63
2021/01/24 00:33:26;;;;;;;32.65;19.80;;;;;;;0.41;96.68;99339.13;5068856;28;20041;-63
2021/01/24 00:35:52;;;;;;;31.00;17.05;;;;;;;0.42;97.21;99342.66;5068858;28;20064;-61
2021/01/24 00:38:18;;;;;;;30.08;17.75;;;;;;;0.35;96.86;99339.56;5048986;28;20049;-64
2021/01/24 00:40:44;;;;;;;29.60;17.25;;;;;;;0.37;96.81;99344.75;5061099;28;20485;-63
2021/01/24 00:43:10;;;;;;;33.35;18.33;;;;;;;0.32;96.79;99345.94;5067430;28;20127;-63
2021/01/24 00:45:37;;;;;;;34.10;19.00;;;;;;;0.32;96.69;99356.53;5048010;28;20049;-63
2021/01/24 00:48:04;;;;;;;31.52;17.85;;;;;;;0.33;97.36;99355.56;5047972;28;20060;-62
2021/01/24 00:50:30;;;;;;;35.67;20.58;;;;;;;0.44;96.89;99352.19;5060368;28;21337;-61
2021/01/24 00:52:56;;;;;;;34.33;20.77;;;;;;;0.45;97.02;99353.00;5068415;28;20447;-62
2021/01/24 00:55:22;;;;;;;36.47;20.38;;;;;;;0.47;96.62;99353.72;5066981;28;20500;-62
2021/01/24 00:57:49;;;;;;;37.22;21.60;;;;;;;0.45;97.07;99350.38;5055182;28;20041;-62
2021/01/24 01:00:16;;;;;;;37.97;21.48;;;;;;;0.51;96.77;99357.88;5047794;28;20053;-62
2021/01/24 01:02:43;;;;;;;36.78;21.90;;;;;;;0.47;96.66;99356.38;5060947;28;20056;-62
2021/01/24 01:05:09;;;;;;;34.30;18.85;;;;;;;0.48;96.93;99358.09;5067085;28;20044;-62
2021/01/24 01:07:35;;;;;;;32.42;18.98;;;;;;;0.48;96.92;99355.44;5068278;28;20055;-62
2021/01/24 01:10:01;;;;;;;32.92;17.30;;;;;;;0.52;96.78;99355.09;5067862;28;20461;-61
2021/01/24 01:12:27;;;;;;;31.27;16.10;;;;;;;0.52;97.10;99364.84;5059756;28;20405;-61
2021/01/24 01:14:53;;;;;;;28.02;15.52;;;;;;;0.59;97.27;99359.97;5067706;28;20102;-62
2021/01/24 01:17:19;;;;;;;29.10;15.52;;;;;;;0.60;97.37;99367.78;5056500;28;20053;-62
2021/01/24 01:19:46;;;;;;;24.25;14.02;;;;;;;0.67;97.12;99362.91;5047528;28;20106;-62
2021/01/24 01:22:12;;;;;;;28.05;14.40;;;;;;;0.73;97.19;99369.56;5048342;28;20702;-62
2021/01/24 01:24:37;;;;;;;25.27;13.00;;;;;;;0.73;97.17;99377.53;5061571;28;20084;-62
2021/01/24 01:27:04;;;;;;;22.80;12.45;;;;;;;0.80;97.33;99376.97;5067025;28;20086;-62
2021/01/24 01:29:30;;;;;;;27.15;13.00;;;;;;;0.72;96.87;99375.81;5068455;28;20045;-62
2021/01/24 01:31:56;;;;;;;23.70;12.27;;;;;;;0.77;97.53;99379.00;5068154;28;20052;-62
2021/01/24 01:34:21;;;;;;;22.92;11.52;;;;;;;0.85;96.91;99382.78;5064995;28;20529;-62
2021/01/24 01:36:48;;;;;;;20.60;10.70;;;;;;;0.85;96.98;99387.22;5047349;28;20056;-62
2021/01/24 01:39:15;;;;;;;22.65;10.43;;;;;;;0.82;96.76;99387.44;5046967;28;20053;-62
2021/01/24 01:41:41;;;;;;;22.25;11.65;;;;;;;0.80;97.29;99384.06;5048226;28;20049;-63
2021/01/24 01:44:07;;;;;;;23.13;11.30;;;;;;;0.81;97.08;99388.41;5056090;28;20045;-62
2021/01/24 01:46:33;;;;;;;19.27;10.25;;;;;;;0.81;97.40;99383.09;5064738;28;20056;-63
2021/01/24 01:49:00;;;;;;;21.30;10.65;;;;;;;0.73;97.25;99393.41;5051879;28;20056;-62
2021/01/24 01:51:26;;;;;;;25.70;11.18;;;;;;;0.68;97.10;99396.41;5063054;28;20049;-62
2021/01/24 01:53:54;;;;;;;22.90;10.77;;;;;;;0.70;97.38;99400.59;5056758;28;20049;-62
2021/01/24 01:56:20;;;;;;;18.15;9.68;;;;;;;0.70;97.58;99395.31;5051697;28;20045;-62
2021/01/24 01:58:46;;;;;;;16.08;9.07;;;;;;;0.73;97.31;99401.34;5058484;28;20506;-63
2021/01/24 02:01:19;;;;;;;17.50;10.10;;;;;;;0.80;97.13;99399.97;5072004;28;20056;-63
2021/01/24 02:03:54;;;;;;;20.15;10.25;;;;;;;0.88;97.33;99392.28;5071821;28;20051;-63
2021/01/24 02:06:27;;;;;;;20.02;11.13;;;;;;;0.89;97.54;99391.34;5071339;28;20045;-62
2021/01/24 02:09:01;;;;;;;21.45;11.23;;;;;;;0.63;96.78;99390.56;5070956;28;20049;-62
2021/01/24 02:11:36;;;;;;;27.25;10.85;;;;;;;0.63;96.91;99388.78;5062998;28;20040;-63
2021/01/24 02:14:14;;;;;;;20.95;9.88;;;;;;;0.77;97.20;99390.44;5055046;28;20383;-63
2021/01/24 02:16:41;;;;;;;22.75;10.05;;;;;;;0.85;96.77;99392.53;5065057;28;20186;-63
2021/01/24 02:19:11;;;;;;;21.08;10.48;;;;;;;0.78;96.51;99397.44;5050345;28;20080;-63
2021/01/24 02:21:41;;;;;;;19.00;10.40;;;;;;;0.67;96.72;99398.19;5054946;28;20049;-62
2021/01/24 02:24:12;;;;;;;19.02;9.93;;;;;;;0.72;97.13;99403.13;5070497;28;20394;-63
2021/01/24 02:26:46;;;;;;;17.13;9.52;;;;;;;0.77;96.50;99410.78;5057628;28;20517;-63
2021/01/24 02:29:22;;;;;;;19.88;10.23;;;;;;;0.59;96.59;99404.97;5059340;28;20493;-63
2021/01/24 02:31:50;;;;;;;17.58;9.65;;;;;;;0.46;96.44;99407.66;5070798;28;20044;-63
2021/01/24 02:34:20;;;;;;;20.30;10.02;;;;;;;0.54;96.95;99415.88;5070052;28;20406;-63
2021/01/24 02:36:48;;;;;;;19.23;10.13;;;;;;;0.65;96.50;99421.28;5069968;28;20052;-62
2021/01/24 02:39:14;;;;;;;18.83;10.65;;;;;;;0.67;96.86;99415.88;5069439;28;20055;-62
2021/01/24 02:41:40;;;;;;;18.92;10.52;;;;;;;0.71;96.63;99417.34;5070659;28;20047;-63
2021/01/24 02:44:09;;;;;;;21.30;10.60;;;;;;;0.70;96.69;99427.09;5070037;28;20052;-62
2021/01/24 02:46:36;;;;;;;20.58;11.20;;;;;;;0.65;96.50;99423.94;5071352;28;20053;-62
2021/01/24 02:49:04;;;;;;;20.27;10.68;;;;;;;0.66;97.13;99428.28;5064981;28;20041;-63
2021/01/24 02:51:31;;;;;;;21.63;10.70;;;;;;;0.70;97.16;99432.38;5070050;28;20093;-63
2021/01/24 02:53:57;;;;;;;21.08;10.30;;;;;;;0.73;97.15;99430.50;5054946;28;20049;-61
2021/01/24 02:59:12;;;;;;;23.75;11.57;;;;;;;0.67;97.17;99443.19;5031388;23;20127;-62
2021/01/24 03:01:38;;;;;;;22.92;11.45;;;;;;;0.65;97.22;99438.97;5026317;28;20053;-63
2021/01/24 03:04:05;;;;;;;23.60;11.10;;;;;;;0.60;96.95;99443.75;5023589;28;20116;-63
2021/01/24 03:06:32;;;;;;;23.40;10.88;;;;;;;0.61;97.55;99448.09;5024517;28;20045;-63
2021/01/24 03:08:58;;;;;;;25.63;11.82;;;;;;;0.58;97.46;99449.13;5023481;28;20060;-62
2021/01/24 03:11:24;;;;;;;19.52;10.55;;;;;;;0.56;97.43;99456.34;5023922;28;20483;-62
2021/01/24 03:13:56;;;;;;;23.77;11.27;;;;;;;0.54;97.19;99450.31;5023530;28;20057;-62
2021/01/24 03:16:23;;;;;;;20.83;10.23;;;;;;;0.56;97.84;99459.00;5023080;28;20120;-62
2021/01/24 03:18:51;;;;;;;19.00;10.00;;;;;;;0.56;97.26;99459.00;5023003;28;20042;-62
2021/01/24 03:21:19;;;;;;;21.75;9.35;;;;;;;0.59;97.60;99464.09;5024870;28;20054;-62
2021/01/24 03:23:45;;;;;;;18.13;10.20;;;;;;;0.69;97.35;99467.78;5025533;28;20141;-62
2021/01/24 03:26:11;;;;;;;20.05;10.48;;;;;;;0.65;97.21;99461.00;5024245;28;20080;-62
2021/01/24 03:28:38;;;;;;;22.60;10.48;;;;;;;0.69;97.52;99465.13;5023340;28;20053;-61
2021/01/24 03:31:14;;;;;;;20.63;10.18;;;;;;;0.78;97.62;99468.94;5055968;22;20079;-63
2021/01/24 03:33:41;;;;;;;25.98;11.90;;;;;;;0.79;97.68;99467.97;5006999;28;20116;-63
2021/01/24 03:36:07;;;;;;;20.58;11.00;;;;;;;0.81;98.06;99473.16;5001973;28;20101;-62
2021/01/24 03:38:34;;;;;;;21.00;11.02;;;;;;;0.86;98.25;99479.81;5002120;28;20042;-63
2021/01/24 03:41:00;;;;;;;25.98;11.18;;;;;;;0.85;98.38;99482.59;5002282;28;20045;-62
2021/01/24 03:43:26;;;;;;;22.77;11.82;;;;;;;0.85;98.06;99482.59;5002266;28;20057;-62
2021/01/24 03:45:52;;;;;;;21.75;10.77;;;;;;;0.86;97.60;99484.28;5003083;28;20152;-63
2021/01/24 03:48:18;;;;;;;23.92;11.50;;;;;;;0.85;97.93;99494.03;5001948;28;20054;-63
2021/01/24 03:50:44;;;;;;;25.00;11.85;;;;;;;0.85;98.43;99493.19;5002050;28;20054;-62
2021/01/24 03:53:10;;;;;;;25.27;11.63;;;;;;;0.92;97.84;99497.09;5001433;28;20395;-62
2021/01/24 03:55:36;;;;;;;23.52;12.02;;;;;;;1.00;98.49;99492.09;5001658;28;20050;-62
2021/01/24 04:01:05;;;;;;;25.10;11.35;;;;;;;0.99;98.53;99500.16;5085824;22;20052;-62
2021/01/24 04:03:31;;;;;;;18.98;10.75;;;;;;;0.97;98.48;99504.72;5089876;28;20044;-62
2021/01/24 04:05:57;;;;;;;21.63;11.15;;;;;;;0.99;98.74;99500.16;5089627;28;20051;-62
2021/01/24 04:08:23;;;;;;;21.52;11.43;;;;;;;0.94;98.29;99508.41;5088743;28;20055;-62
2021/01/24 04:10:49;;;;;;;24.30;11.75;;;;;;;0.95;98.31;99504.81;5089428;28;20055;-61
2021/01/24 04:13:15;;;;;;;26.30;12.35;;;;;;;0.98;98.90;99509.91;5089025;28;20044;-62
2021/01/24 04:15:41;;;;;;;24.45;12.23;;;;;;;0.98;98.98;99514.38;5089921;28;20048;-62
2021/01/24 04:18:07;;;;;;;21.30;11.13;;;;;;;1.04;98.48;99509.47;5088847;28;20511;-62
2021/01/24 04:20:33;;;;;;;26.00;13.73;;;;;;;1.11;98.46;99511.69;5088771;28;20082;-62
2021/01/24 04:22:59;;;;;;;27.95;12.32;;;;;;;1.16;98.56;99515.72;5081223;28;20041;-62
2021/01/24 04:25:25;;;;;;;18.50;11.10;;;;;;;1.11;98.80;99523.13;5088306;28;20047;-62
2021/01/24 04:27:52;;;;;;;25.48;12.32;;;;;;;1.11;98.51;99514.34;5089549;28;20052;-62
2021/01/24 04:30:18;;;;;;;21.42;11.45;;;;;;;1.17;98.90;99519.22;5088670;28;20044;-62
2021/01/24 04:32:44;;;;;;;24.92;11.02;;;;;;;1.17;98.28;99522.69;5089704;28;20047;-62
2021/01/24 04:35:11;;;;;;;19.45;10.40;;;;;;;1.20;98.75;99526.94;5088828;28;20044;-62
2021/01/24 04:37:37;;;;;;;20.58;10.48;;;;;;;1.28;98.49;99519.28;5089486;28;20043;-63
2021/01/24 04:40:04;;;;;;;18.70;9.02;;;;;;;1.26;98.49;99528.31;5089527;28;20527;-62
2021/01/24 04:42:31;;;;;;;18.60;10.15;;;;;;;1.20;98.56;99532.25;5089385;28;20036;-62
2021/01/24 04:48:01;;;;;;;21.10;8.82;;;;;;;1.20;98.09;99529.59;5072000;22;20114;-63
2021/01/24 04:50:28;;;;;;;14.80;8.32;;;;;;;1.13;98.38;99533.63;5057858;28;20044;-63
2021/01/24 04:52:56;;;;;;;16.17;7.22;;;;;;;1.12;98.35;99543.38;5058680;28;20047;-62
2021/01/24 04:55:23;;;;;;;15.32;6.60;;;;;;;1.18;98.85;99544.75;5058564;28;23287;-63
2021/01/24 04:57:51;;;;;;;10.48;5.22;;;;;;;1.17;98.31;99545.72;5059250;28;20056;-63
2021/01/24 05:00:18;;;;;;;6.63;4.07;;;;;;;1.19;98.24;99547.31;5058423;28;20102;-62
2021/01/24 05:02:44;;;;;;;8.35;4.25;;;;;;;1.20;98.98;99550.78;5057616;28;20405;-64
2021/01/24 05:05:13;;;;;;;8.98;3.60;;;;;;;1.26;98.86;99549.50;5057754;28;20052;-62
2021/01/24 05:07:39;;;;;;;10.23;3.78;;;;;;;1.26;98.49;99552.16;5058818;28;20053;-63
2021/01/24 05:10:06;;;;;;;6.63;3.00;;;;;;;1.28;98.70;99558.19;5058426;28;20060;-62
2021/01/24 05:12:32;;;;;;;7.72;3.22;;;;;;;1.32;98.35;99549.91;5058624;28;20044;-64
2021/01/24 05:14:58;;;;;;;5.07;2.22;;;;;;;1.32;98.02;99552.56;5058940;28;20080;-63
2021/01/24 05:17:25;;;;;;;5.05;2.00;;;;;;;1.31;98.42;99556.19;5058310;28;20452;-64
2021/01/24 05:19:51;;;;;;;4.55;2.45;;;;;;;1.28;98.21;99556.41;5058016;28;20094;-63
2021/01/24 05:22:17;;;;;;;5.32;2.28;;;;;;;1.25;98.48;99553.94;5057909;28;20056;-63
2021/01/24 05:24:43;;;;;;;3.80;2.13;;;;;;;1.29;98.40;99560.72;5058780;28;20048;-62
2021/01/24 05:27:11;;;;;;;5.63;2.13;;;;;;;1.29;98.06;99559.91;5057642;28;20056;-61
2021/01/24 05:29:40;;;;;;;5.43;2.10;;;;;;;1.29;98.20;99560.72;5058108;28;20041;-61
2021/01/24 05:32:06;;;;;;;4.97;2.00;;;;;;;1.36;97.94;99566.47;5057630;28;20060;-62
2021/01/24 05:34:33;;;;;;;3.72;1.83;;;;;;;1.32;97.70;99565.81;5059134;28;20044;-63
2021/01/24 05:37:00;;;;;;;4.00;1.85;;;;;;;1.25;98.34;99559.25;5058900;28;20064;-62
2021/01/24 05:39:29;;;;;;;2.95;1.58;;;;;;;1.19;97.92;99565.84;5057586;28;20051;-63
2021/01/24 05:41:57;;;;;;;4.22;1.80;;;;;;;1.20;97.90;99564.03;5059436;28;20044;-61
2021/01/24 05:44:24;;;;;;;4.30;1.55;;;;;;;1.26;97.95;99566.25;5058651;28;20502;-62
2021/01/24 05:46:53;;;;;;;2.55;1.35;;;;;;;1.27;97.93;99556.50;5058628;28;20056;-62
2021/01/24 05:49:24;;;;;;;4.07;2.05;;;;;;;1.22;97.99;99564.78;5059539;28;20106;-62
2021/01/24 05:52:03;;;;;;;3.17;1.10;;;;;;;1.22;97.82;99570.06;5059080;28;20049;-62
2021/01/24 05:54:40;;;;;;;3.70;1.60;;;;;;;1.19;97.83;99578.25;5057593;28;20051;-63
2021/01/24 05:57:07;;;;;;;1.98;1.45;;;;;;;1.18;97.81;99568.63;5058635;28;20060;-62
2021/01/24 05:59:49;;;;;;;2.28;1.38;;;;;;;1.15;97.93;99576.75;5058945;28;20072;-63
2021/01/24 06:02:15;;;;;;;2.70;1.60;;;;;;;1.14;97.48;99572.44;5058902;28;20140;-63
2021/01/24 06:04:42;;;;;;;3.90;1.50;;;;;;;1.07;97.48;99581.75;5056709;28;20053;-61
2021/01/24 06:07:08;;;;;;;3.15;1.30;;;;;;;1.03;97.27;99579.31;5049686;28;20174;-62
2021/01/24 06:09:34;;;;;;;2.88;1.48;;;;;;;1.00;97.65;99582.19;5056793;28;20549;-62
2021/01/24 06:12:03;;;;;;;1.77;1.30;;;;;;;0.88;97.54;99590.97;5058420;28;20204;-63
2021/01/24 06:14:29;;;;;;;3.55;1.40;;;;;;;0.87;97.36;99591.94;5057269;28;20502;-62
2021/01/24 06:16:59;;;;;;;6.55;1.60;;;;;;;0.80;97.23;99603.91;5057300;28;20053;-62
2021/01/24 06:19:30;;;;;;;2.67;1.30;;;;;;;0.79;97.32;99604.84;5057110;28;20059;-63
2021/01/24 06:21:57;;;;;;;3.67;1.45;;;;;;;0.81;97.62;99611.75;5057944;28;20459;-62
2021/01/24 06:24:28;;;;;;;4.53;1.80;;;;;;;0.87;97.76;99613.13;5058104;28;20045;-62
2021/01/24 06:26:58;;;;;;;3.88;1.92;;;;;;;0.91;97.92;99619.88;5057246;28;20045;-62
2021/01/24 06:29:27;;;;;;;5.13;2.00;;;;;;;0.89;98.03;99626.28;5058227;28;20045;-62
2021/01/24 06:31:54;;;;;;;4.03;2.10;;;;;;;0.86;97.82;99628.16;5057119;28;20064;-62
2021/01/24 06:34:32;;;;;;;6.93;1.95;;;;;;;0.85;98.17;99630.91;5060144;28;20060;-62
2021/01/24 06:37:03;;;;;;;6.72;2.42;;;;;;;0.78;98.20;99634.94;5061547;28;20060;-62
2021/01/24 06:39:32;;;;;;;7.10;2.15;;;;;;;0.72;98.08;99638.00;5061998;28;20082;-61
2021/01/24 06:41:57;;;;;;;4.70;2.22;;;;;;;0.66;98.12;99642.78;5062105;28;20041;-62
2021/01/24 06:44:35;;;;;;;3.58;2.35;;;;;;;0.58;98.33;99645.06;5059454;28;20133;-62
2021/01/24 06:47:03;;;;;;;4.43;2.08;;;;;;;0.55;98.35;99647.91;5060007;28;20413;-63
2021/01/24 06:49:39;;;;;;;7.57;1.92;;;;;;;0.55;98.38;99647.91;5061962;28;20040;-62
2021/01/24 06:52:19;;;;;;;3.10;2.00;;;;;;;0.49;98.48;99645.69;5060305;28;20564;-62
2021/01/24 06:54:46;;;;;;;6.38;1.90;;;;;;;0.44;98.48;99639.84;5061483;28;20045;-63
2021/01/24 06:57:12;;;;;;;3.55;1.80;;;;;;;0.39;98.28;99639.31;5058997;28;20096;-62
2021/01/24 06:59:39;;;;;;;4.90;2.15;;;;;;;0.33;98.61;99651.13;5061227;28;20044;-63
2021/01/24 07:02:26;;;;;;;3.58;2.15;;;;;;;0.26;98.66;99661.25;5061459;28;20534;-63
2021/01/24 07:05:09;;;;;;;5.15;2.30;;;;;;;0.18;98.61;99658.28;5061486;28;20136;-62
2021/01/24 07:07:40;;;;;;;5.07;2.20;;;;;;;0.17;98.82;99664.50;5061486;28;20477;-63
2021/01/24 07:10:09;;;;;;;5.32;2.00;;;;;;;0.13;98.89;99671.81;5060195;28;20432;-63
2021/01/24 07:12:37;;;;;;;3.67;2.00;;;;;;;0.14;98.86;99677.94;5061849;28;20048;-63
2021/01/24 07:15:06;;;;;;;7.05;2.17;;;;;;;0.10;98.82;99681.72;5059909;28;20497;-62
2021/01/24 07:17:32;;;;;;;3.10;1.75;;;;;;;0.02;98.81;99687.53;5060744;28;20052;-63
2021/01/24 07:19:59;;;;;;;4.75;2.58;;;;;;;0.13;99.08;99687.69;5062908;28;20102;-62
2021/01/24 07:22:25;;;;;;;3.65;1.90;;;;;;;0.09;98.84;99685.31;5059662;28;20063;-63
2021/01/24 07:24:53;;;;;;;5.10;2.10;;;;;;;0.03;98.56;99685.72;5061492;28;20449;-61
2021/01/24 07:27:20;;;;;;;3.65;2.00;;;;;;;-0.04;98.86;99688.75;5061558;28;20044;-63
2021/01/24 07:29:47;;;;;;;5.47;2.08;;;;;;;-0.17;98.74;99687.84;5061858;28;20045;-63
2021/01/24 07:32:16;;;;;;;2.95;1.67;;;;;;;-0.13;98.85;99697.28;5059906;28;20041;-63
2021/01/24 07:34:42;;;;;;;2.60;2.03;;;;;;;-0.08;98.73;99700.47;5059386;28;20060;-62
2021/01/24 07:37:08;;;;;;;3.28;1.75;;;;;;;-0.20;98.67;99702.09;5059414;28;20103;-62
2021/01/24 07:39:35;;;;;;;3.35;2.03;;;;;;;-0.26;98.74;99712.22;5060349;28;20071;-63
2021/01/24 07:42:03;;;;;;;4.60;2.42;;;;;;;-0.17;98.66;99716.09;5059781;28;20045;-63
2021/01/24 07:44:30;;;;;;;4.63;2.45;;;;;;;-0.19;98.77;99719.66;5060533;28;20436;-63
2021/01/24 07:46:56;;;;;;;4.50;2.08;;;;;;;-0.26;98.60;99722.78;5061024;28;20057;-63
2021/01/24 07:49:24;;;;;;;5.35;2.55;;;;;;;-0.30;98.63;99726.56;5059571;28;20071;-61
2021/01/24 07:51:50;;;;;;;4.45;2.20;;;;;;;-0.31;98.58;99730.16;5061337;28;20082;-63
2021/01/24 07:54:17;;;;;;;5.75;2.17;;;;;;;-0.25;98.63;99727.13;5059750;28;20061;-63
2021/01/24 07:56:44;;;;;;;3.85;2.30;;;;;;;-0.11;98.42;99736.84;5060267;28;20051;-64
2021/01/24 07:59:10;;;;;;;3.08;1.90;;;;;;;-0.21;98.41;99736.56;5059135;28;20052;-63
2021/01/24 08:01:36;;;;;;;4.78;2.05;;;;;;;-0.28;98.43;99735.25;5059505;28;20044;-64
2021/01/24 08:04:04;;;;;;;7.78;3.15;;;;;;;-0.30;98.39;99742.44;5060297;28;20099;-63
2021/01/24 08:06:32;;;;;;;4.55;1.98;;;;;;;-0.28;98.48;99745.81;5060280;28;20098;-61
2021/01/24 08:08:58;;;;;;;3.47;1.80;;;;;;;-0.27;98.55;99744.88;5059780;28;20045;-63
2021/01/24 08:11:24;;;;;;;4.47;1.98;;;;;;;-0.14;98.52;99737.88;5060571;28;20486;-62
2021/01/24 08:13:50;;;;;;;2.97;1.90;;;;;;;-0.06;98.91;99751.50;5059261;28;20076;-63
2021/01/24 08:16:21;;;;;;;7.05;2.13;;;;;;;0.05;98.88;99757.91;5058607;28;20056;-63
2021/01/24 08:18:50;;;;;;;4.65;2.33;;;;;;;0.06;98.99;99762.22;5060131;28;20199;-64
2021/01/24 08:21:17;;;;;;;4.68;2.70;;;;;;;-0.09;98.89;99751.69;5060002;28;20052;-61
2021/01/24 08:23:45;;;;;;;6.10;2.10;;;;;;;-0.18;98.88;99757.53;5059787;28;20041;-64
2021/01/24 08:26:12;;;;;;;5.88;2.00;;;;;;;-0.15;98.80;99772.38;5059614;28;20402;-62
2021/01/24 08:28:38;;;;;;;4.93;2.10;;;;;;;-0.21;98.96;99763.88;5060002;28;20052;-64
2021/01/24 08:31:04;;;;;;;3.45;1.98;;;;;;;-0.18;99.00;99768.09;5058176;28;20084;-64
2021/01/24 08:33:31;;;;;;;7.53;2.30;;;;;;;-0.17;99.01;99764.53;5059226;28;20049;-63
2021/01/24 08:36:11;;;;;;;5.45;2.17;;;;;;;-0.12;99.16;99773.00;5058641;28;20049;-64
2021/01/24 08:38:37;;;;;;;5.18;2.20;;;;;;;-0.11;99.30;99769.44;5058944;28;20063;-62
2021/01/24 08:41:04;;;;;;;2.50;1.70;;;;;;;-0.11;99.25;99774.72;5058024;28;20053;-62
2021/01/24 08:43:31;;;;;;;5.88;2.22;;;;;;;-0.07;99.38;99781.53;5059065;28;20052;-61
2021/01/24 08:46:18;;;;;;;4.80;2.28;;;;;;;-0.06;99.33;99777.06;5058341;28;20131;-64
2021/01/24 08:48:44;;;;;;;8.32;2.50;;;;;;;-0.05;99.39;99784.06;5058018;28;20260;-62
2021/01/24 08:51:10;;;;;;;5.32;2.00;;;;;;;-0.09;99.52;99783.44;5058204;28;20057;-62
2021/01/24 08:53:36;;;;;;;4.07;2.30;;;;;;;-0.07;99.42;99781.53;5058875;28;20497;-62
2021/01/24 08:56:02;;;;;;;3.75;2.22;;;;;;;-0.01;99.44;99791.72;5057646;28;20098;-63
2021/01/24 08:58:29;;;;;;;6.60;2.35;;;;;;;0.10;99.47;99790.22;5058510;28;20053;-62
2021/01/24 09:01:03;;;;;;;5.32;2.40;;;;;;;0.16;99.57;99792.47;5058125;28;20045;-62
2021/01/24 09:03:29;;;;;;;5.25;2.55;;;;;;;0.17;99.27;99800.31;5058281;28;20056;-63
2021/01/24 09:06:12;;;;;;;6.60;2.35;;;;;;;0.14;99.06;99799.66;5058723;28;20102;-62
2021/01/24 09:08:44;;;;;;;8.40;2.53;;;;;;;0.25;99.31;99797.19;5058662;28;20048;-62
2021/01/24 09:11:10;;;;;;;8.45;2.15;;;;;;;0.33;99.14;99800.19;5057305;28;20417;-63
2021/01/24 09:13:37;;;;;;;9.50;2.65;;;;;;;0.35;99.15;99792.16;5059174;28;20045;-62
2021/01/24 09:16:03;;;;;;;6.10;2.42;;;;;;;0.44;99.25;99790.72;5058197;28;20063;-63
2021/01/24 09:18:29;;;;;;;8.13;2.97;;;;;;;0.45;99.23;99801.22;5058343;28;20056;-63
2021/01/24 09:20:55;;;;;;;6.07;3.20;;;;;;;0.51;99.47;99803.47;5058322;28;20041;-62
2021/01/24 09:23:21;;;;;;;9.00;3.95;;;;;;;0.57;98.85;99799.56;5058204;28;20192;-63
2021/01/24 09:25:47;;;;;;;5.93;3.97;;;;;;;0.65;99.15;99797.31;5058510;28;20161;-63
2021/01/24 09:28:13;;;;;;;9.32;4.65;;;;;;;0.77;98.82;99803.59;5057806;28;20052;-62
2021/01/24 09:30:40;;;;;;;8.75;4.15;;;;;;;0.91;98.55;99810.63;5057519;28;20504;-62
2021/01/24 09:33:06;;;;;;;8.80;4.15;;;;;;;0.91;98.47;99805.34;5057668;28;20056;-61
2021/01/24 09:35:32;;;;;;;12.40;4.45;;;;;;;0.92;98.23;99804.41;5057602;28;20451;-61
2021/01/24 09:37:57;;;;;;;9.88;4.95;;;;;;;1.07;98.01;99810.47;5058276;28;20474;-64
2021/01/24 09:40:23;;;;;;;6.38;3.92;;;;;;;1.09;98.24;99808.59;5058166;28;20057;-62
2021/01/24 09:42:49;;;;;;;9.40;4.97;;;;;;;1.05;97.44;99799.97;5059614;28;20133;-62
2021/01/24 09:45:15;;;;;;;5.75;3.63;;;;;;;1.11;98.14;99811.16;5058100;28;20055;-63
2021/01/24 09:47:42;;;;;;;8.90;4.97;;;;;;;1.23;97.23;99815.63;5058482;28;20060;-64
2021/01/24 09:52:35;;;;;;;7.05;4.13;;;;;;;1.36;97.12;99816.50;5076478;22;20361;-62
2021/01/24 09:55:01;;;;;;;6.63;3.55;;;;;;;1.39;96.32;99824.25;5068609;28;20066;-63
2021/01/24 09:57:27;;;;;;;6.60;3.60;;;;;;;1.51;96.09;99835.81;5077680;28;20056;-63
2021/01/24 09:59:53;;;;;;;6.10;3.28;;;;;;;1.61;96.11;99833.41;5078853;28;20044;-63
2021/01/24 10:02:19;;;;;;;6.95;3.17;;;;;;;1.64;95.19;99835.00;5078251;28;20051;-62
2021/01/24 10:04:46;;;;;;;7.72;3.00;;;;;;;1.62;95.44;99835.13;5077835;28;20087;-63
2021/01/24 10:07:12;;;;;;;6.60;2.83;;;;;;;1.67;94.96;99840.09;5076168;28;20044;-62
2021/01/24 10:09:37;;;;;;;3.90;2.80;;;;;;;1.74;94.89;99842.22;5080268;28;20088;-63
2021/01/24 10:12:04;;;;;;;3.30;2.40;;;;;;;1.84;94.46;99850.41;5082584;28;20056;-63
2021/01/24 10:14:30;;;;;;;5.90;2.30;;;;;;;1.92;94.00;99849.88;5081463;28;20044;-62
2021/01/24 10:16:56;;;;;;;4.88;2.53;;;;;;;2.02;92.89;99843.00;5082762;28;20109;-62
2021/01/24 10:19:22;;;;;;;4.28;2.40;;;;;;;2.15;92.47;99847.44;5081660;28;20049;-62
2021/01/24 10:21:49;;;;;;;3.85;2.13;;;;;;;2.38;92.01;99851.97;5080725;28;20060;-62
2021/01/24 10:24:15;;;;;;;3.13;2.20;;;;;;;2.58;91.88;99850.56;5081504;28;20048;-62
2021/01/24 10:26:40;;;;;;;3.88;2.13;;;;;;;2.80;91.40;99852.53;5083011;28;20098;-62
2021/01/24 10:29:07;;;;;;;3.10;1.73;;;;;;;2.84;89.96;99863.75;5081797;28;20052;-62
2021/01/24 10:31:33;;;;;;;6.57;1.52;;;;;;;2.71;89.97;99854.97;5083343;28;20113;-62
2021/01/24 10:33:58;;;;;;;3.35;1.73;;;;;;;2.66;88.66;99859.78;5082076;28;20040;-62
2021/01/24 10:36:24;;;;;;;6.40;2.03;;;;;;;2.54;88.37;99857.03;5080663;28;20105;-62
2021/01/24 10:38:51;;;;;;;4.03;2.00;;;;;;;2.54;88.59;99861.53;5072768;28;20079;-62
2021/01/24 10:41:17;;;;;;;5.25;1.30;;;;;;;2.59;87.66;99862.91;5081003;28;20075;-62
2021/01/24 10:43:43;;;;;;;2.78;1.50;;;;;;;2.66;87.81;99857.97;5082686;28;20044;-62
2021/01/24 10:46:09;;;;;;;4.53;1.50;;;;;;;2.74;88.00;99855.63;5082799;28;20052;-63
2021/01/24 10:48:35;;;;;;;7.18;2.00;;;;;;;2.84;87.09;99857.63;5080840;28;20052;-62
2021/01/24 10:51:01;;;;;;;4.65;1.85;;;;;;;2.80;86.81;99863.16;5081462;28;20083;-62
2021/01/24 10:53:27;;;;;;;3.53;2.00;;;;;;;2.89;86.58;99861.63;5081576;28;20048;-63
2021/01/24 10:55:53;;;;;;;4.97;1.95;;;;;;;2.87;87.72;99852.06;5081486;28;20409;-62
2021/01/24 10:58:19;;;;;;;4.85;2.30;;;;;;;2.83;87.59;99855.91;5078362;28;20057;-62
2021/01/24 11:00:45;;;;;;;5.28;2.38;;;;;;;2.74;87.30;99855.63;5081143;28;20055;-62
2021/01/24 11:03:11;;;;;;;6.38;2.60;;;;;;;2.73;86.92;99856.59;5079702;28;20047;-62
2021/01/24 11:05:37;;;;;;;6.13;2.97;;;;;;;2.69;87.45;99860.41;5081001;28;20071;-63
2021/01/24 11:08:04;;;;;;;5.95;2.50;;;;;;;2.66;87.96;99855.31;5079635;28;20081;-62
2021/01/24 11:10:29;;;;;;;7.65;3.00;;;;;;;2.65;87.20;99847.47;5073452;28;20048;-62
2021/01/24 11:12:56;;;;;;;6.57;2.20;;;;;;;2.60;88.04;99863.72;5064479;28;20490;-62
2021/01/24 11:15:22;;;;;;;6.78;2.00;;;;;;;2.51;87.33;99853.78;5045511;22;20105;-63
2021/01/24 11:17:48;;;;;;;4.25;1.90;;;;;;;2.47;88.09;99854.94;5082000;28;20769;-62
2021/01/24 11:20:14;;;;;;;6.65;3.03;;;;;;;2.42;88.04;99858.78;5073070;28;20048;-62
2021/01/24 11:22:40;;;;;;;5.13;2.30;;;;;;;2.36;88.24;99853.91;5075265;28;20055;-62
2021/01/24 11:25:07;;;;;;;4.63;2.03;;;;;;;2.27;87.60;99859.88;5084649;28;20075;-62
2021/01/24 11:27:33;;;;;;;4.43;2.00;;;;;;;2.26;88.38;99864.31;5087087;28;20405;-63
2021/01/24 11:30:00;;;;;;;2.78;2.28;;;;;;;2.24;88.52;99868.03;5083593;28;20044;-63
2021/01/24 11:32:26;;;;;;;6.50;2.25;;;;;;;2.27;88.63;99862.53;5087065;28;20055;-63
2021/01/24 11:34:52;;;;;;;4.75;2.60;;;;;;;2.38;88.65;99857.28;5090398;28;20083;-63
2021/01/24 11:37:18;;;;;;;4.75;2.60;;;;;;;2.63;88.34;99859.06;5090659;28;20121;-62
2021/01/24 11:39:44;;;;;;;4.95;2.67;;;;;;;2.82;88.12;99862.19;5090761;28;20173;-62
2021/01/24 11:42:10;;;;;;;6.05;2.80;;;;;;;2.92;88.36;99860.56;5090180;28;20059;-62
2021/01/24 11:47:05;;;;;;;6.70;2.83;;;;;;;3.10;86.99;99845.06;5095022;23;20126;-63
2021/01/24 11:49:31;;;;;;;5.60;2.63;;;;;;;3.21;86.96;99849.59;5091693;28;20040;-64